Terminal Aerodrome Forecast
Issued by NWS Wilmington, NC

Home | Current Version | Previous Version | Text Only | Print | Product List | Glossary On
Versions: 1 2 3 4 5 6 7 8 9 10 11 12 13 14 15
646
FTUS42 KILM 272335
TAFMYR
TAF
KMYR 272335Z 2800/2824 09006KT P6SM BKN150
     FM280300 13007KT P6SM BKN140
     FM280600 13004KT P6SM VCSH OVC045
     FM280900 17006KT P6SM OVC060 PROB30 2809/2813 2SM -SHRA BR
      OVC040
     FM281300 18005KT P6SM BKN060 PROB30 2813/2814 4SM -SHRA BR
      OVC040
     FM281600 18010KT P6SM SCT250
      AMD LTD TO CLD VIS AND WIND 2804/2811=

USA.gov is the U.S. government's official web portal to all federal, state and local government web resources and services.